
Distance (Route):
Temperature : 21.6°C
Humidity : 0%
Pressure : 0hPa| Receiver | Frames | First received | Last received |
|---|---|---|---|
| ARGUS2 | 342 | 2026-08-31 11:04:52 | 2026-08-31 13:25:29 |
| Receiver | Date | Latitude | Longitude | Direction | Speed | Altitude | Climb | Temperature | Humidity | Pressure | Voltage | Killtimer | Uptime | BKT | XDATA |
|---|---|---|---|---|---|---|---|---|---|---|---|---|---|---|---|
| ARGUS2 | 2026-08-31 13:25:29 | 27.62429 | -82.88417 | 287° | 7km/h | 813m | -7.2m/s | 21.6°C | 0% | 0hPa | 0V | 00:00:00 | 00:00:00 | 00:00:00 | |
| ARGUS2 | 2026-08-31 13:25:09 | 27.62413 | -82.88360 | 303° | 9km/h | 959m | -7.0m/s | 20.5°C | 0% | 0hPa | 0V | 00:00:00 | 00:00:00 | 00:00:00 | |
| ARGUS2 | 2026-08-31 13:24:47 | 27.62404 | -82.88314 | 228° | 5km/h | 1109m | -7.6m/s | 19.9°C | 0% | 0hPa | 0V | 00:00:00 | 00:00:00 | 00:00:00 | |
| ARGUS2 | 2026-08-31 13:24:27 | 27.62430 | -82.88273 | 232° | 5km/h | 1261m | -7.7m/s | 19.4°C | 0% | 0hPa | 0V | 00:00:00 | 00:00:00 | 00:00:00 | |
| ARGUS2 | 2026-08-31 13:24:07 | 27.62458 | -82.88265 | 193° | 5km/h | 1416m | -6.9m/s | 18.5°C | 0% | 0hPa | 0V | 00:00:00 | 00:00:00 | 00:00:00 | |
| ARGUS2 | 2026-08-31 13:23:45 | 27.62474 | -82.88233 | 215° | 5km/h | 1569m | -7.4m/s | 17.5°C | 0% | 0hPa | 0V | 00:00:00 | 00:00:00 | 00:00:00 | |
| ARGUS2 | 2026-08-31 13:23:24 | 27.62486 | -82.88214 | 0° | 0km/h | 1725m | -7.5m/s | 16.2°C | 0% | 0hPa | 0V | 00:00:00 | 00:00:00 | 00:00:00 | |
| ARGUS2 | 2026-08-31 13:23:03 | 27.62484 | -82.88179 | 268° | 4km/h | 1880m | -7.2m/s | 15.3°C | 0% | 0hPa | 0V | 00:00:00 | 00:00:00 | 00:00:00 | |
| ARGUS2 | 2026-08-31 13:22:43 | 27.62477 | -82.88152 | 311° | 4km/h | 2035m | -7.1m/s | 14.4°C | 0% | 0hPa | 0V | 00:00:00 | 00:00:00 | 00:00:00 | |
| ARGUS2 | 2026-08-31 13:22:22 | 27.62458 | -82.88125 | 294° | 7km/h | 2183m | -7.6m/s | 13.6°C | 0% | 0hPa | 0V | 00:00:00 | 00:00:00 | 00:00:00 | |
| ARGUS2 | 2026-08-31 13:22:02 | 27.62439 | -82.88088 | 294° | 4km/h | 2340m | -7.2m/s | 12.8°C | 0% | 0hPa | 0V | 00:00:00 | 00:00:00 | 00:00:00 | |
| ARGUS2 | 2026-08-31 13:21:41 | 27.62427 | -82.88053 | 290° | 9km/h | 2490m | -7.6m/s | 11.8°C | 0% | 0hPa | 0V | 00:00:00 | 00:00:00 | 00:00:00 | |
| ARGUS2 | 2026-08-31 13:21:21 | 27.62407 | -82.88024 | 360° | 4km/h | 2647m | -7.4m/s | 11.1°C | 0% | 0hPa | 0V | 00:00:00 | 00:00:00 | 00:00:00 | |
| ARGUS2 | 2026-08-31 13:20:59 | 27.62377 | -82.88015 | 328° | 4km/h | 2808m | -7.9m/s | 10.8°C | 0% | 0hPa | 0V | 00:00:00 | 00:00:00 | 00:00:00 | |
| ARGUS2 | 2026-08-31 13:17:24 | 27.62237 | -82.87630 | 290° | 9km/h | 4556m | -7.9m/s | 1.5°C | 0% | 0hPa | 0V | 00:00:00 | 00:00:00 | 00:00:00 | |
| ARGUS2 | 2026-08-31 13:17:03 | 27.62217 | -82.87570 | 297° | 11km/h | 4723m | -8.1m/s | 0.3°C | 0% | 0hPa | 0V | 00:00:00 | 00:00:00 | 00:00:00 | |
| ARGUS2 | 2026-08-31 13:16:43 | 27.62208 | -82.87508 | 287° | 11km/h | 4900m | -8.5m/s | -1.5°C | 0% | 0hPa | 0V | 00:00:00 | 00:00:00 | 00:00:00 | |
| ARGUS2 | 2026-08-31 13:16:20 | 27.62223 | -82.87427 | 259° | 16km/h | 5092m | -8.5m/s | -1.6°C | 0% | 0hPa | 0V | 00:00:00 | 00:00:00 | 00:00:00 | |
| ARGUS2 | 2026-08-31 13:15:59 | 27.62250 | -82.87332 | 258° | 16km/h | 5279m | -8.6m/s | -2.4°C | 0% | 0hPa | 0V | 00:00:00 | 00:00:00 | 00:00:00 | |
| ARGUS2 | 2026-08-31 13:13:42 | 27.62302 | -82.86603 | 243° | 20km/h | 6466m | -9.2m/s | -9.3°C | 0% | 0hPa | 0V | 00:00:00 | 00:00:00 | 00:00:00 | |
| ARGUS2 | 2026-08-31 13:13:20 | 27.62370 | -82.86493 | 239° | 22km/h | 6681m | -9.1m/s | -10.5°C | 0% | 0hPa | 0V | 00:00:00 | 00:00:00 | 00:00:00 | |
| ARGUS2 | 2026-08-31 13:12:54 | 27.62411 | -82.86372 | 256° | 18km/h | 6929m | -10.3m/s | -11.5°C | 0% | 0hPa | 0V | 00:00:00 | 00:00:00 | 00:00:00 | |
| ARGUS2 | 2026-08-31 13:12:34 | 27.62437 | -82.86284 | 240° | 15km/h | 7127m | -10.0m/s | -12.8°C | 0% | 0hPa | 0V | 00:00:00 | 00:00:00 | 00:00:00 | |
| ARGUS2 | 2026-08-31 13:12:13 | 27.62487 | -82.86210 | 227° | 15km/h | 7336m | -10.4m/s | -13.9°C | 0% | 0hPa | 0V | 00:00:00 | 00:00:00 | 00:00:00 | |
| ARGUS2 | 2026-08-31 13:11:53 | 27.62548 | -82.86140 | 232° | 18km/h | 7541m | -10.0m/s | -14.9°C | 0% | 0hPa | 0V | 00:00:00 | 00:00:00 | 00:00:00 | |
| ARGUS2 | 2026-08-31 13:11:32 | 27.62627 | -82.86071 | 205° | 20km/h | 7758m | -10.5m/s | -16.4°C | 0% | 0hPa | 0V | 00:00:00 | 00:00:00 | 00:00:00 | |
| ARGUS2 | 2026-08-31 13:11:12 | 27.62699 | -82.85995 | 221° | 16km/h | 7962m | -10.4m/s | -17.9°C | 0% | 0hPa | 0V | 00:00:00 | 00:00:00 | 00:00:00 | |
| ARGUS2 | 2026-08-31 13:10:52 | 27.62741 | -82.85929 | 229° | 15km/h | 8177m | -10.3m/s | -19.1°C | 0% | 0hPa | 0V | 00:00:00 | 00:00:00 | 00:00:00 | |
| ARGUS2 | 2026-08-31 13:10:31 | 27.62764 | -82.85872 | 249° | 11km/h | 8381m | -10.4m/s | -20.4°C | 0% | 0hPa | 0V | 00:00:00 | 00:00:00 | 00:00:00 | |
| ARGUS2 | 2026-08-31 13:10:11 | 27.62783 | -82.85819 | 221° | 9km/h | 8594m | -10.3m/s | -22.0°C | 0% | 0hPa | 0V | 00:00:00 | 00:00:00 | 00:00:00 | |
| ARGUS2 | 2026-08-31 13:09:50 | 27.62829 | -82.85782 | 221° | 13km/h | 8795m | -9.7m/s | -23.2°C | 0% | 0hPa | 0V | 00:00:00 | 00:00:00 | 00:00:00 | |
| ARGUS2 | 2026-08-31 13:09:30 | 27.62894 | -82.85743 | 225° | 13km/h | 9004m | -9.9m/s | -24.7°C | 0% | 0hPa | 0V | 00:00:00 | 00:00:00 | 00:00:00 | |
| ARGUS2 | 2026-08-31 13:09:08 | 27.62935 | -82.85699 | 241° | 9km/h | 9214m | -10.1m/s | -26.2°C | 0% | 0hPa | 0V | 00:00:00 | 00:00:00 | 00:00:00 | |
| ARGUS2 | 2026-08-31 13:08:48 | 27.62970 | -82.85669 | 195° | 4km/h | 9415m | -9.5m/s | -27.4°C | 0% | 0hPa | 0V | 00:00:00 | 00:00:00 | 00:00:00 | |
| ARGUS2 | 2026-08-31 13:08:27 | 27.62989 | -82.85663 | 69° | 4km/h | 9623m | -10.2m/s | -29.2°C | 0% | 0hPa | 0V | 00:00:00 | 00:00:00 | 00:00:00 | |
| ARGUS2 | 2026-08-31 13:08:06 | 27.62973 | -82.85709 | 48° | 11km/h | 9829m | -10.0m/s | -30.7°C | 0% | 0hPa | 0V | 00:00:00 | 00:00:00 | 00:00:00 | |
| ARGUS2 | 2026-08-31 13:07:46 | 27.62942 | -82.85768 | 53° | 13km/h | 10044m | -10.0m/s | -32.5°C | 0% | 0hPa | 0V | 00:00:00 | 00:00:00 | 00:00:00 | |
| ARGUS2 | 2026-08-31 13:07:23 | 27.62905 | -82.85851 | 65° | 16km/h | 10259m | -9.7m/s | -34.0°C | 0% | 0hPa | 0V | 00:00:00 | 00:00:00 | 00:00:00 | |
| ARGUS2 | 2026-08-31 13:06:11 | 27.62803 | -82.86256 | 75° | 24km/h | 10888m | -7.7m/s | -39.3°C | 0% | 0hPa | 0V | 00:00:00 | 00:00:00 | 00:00:00 | |
| ARGUS2 | 2026-08-31 13:05:47 | 27.62779 | -82.86408 | 79° | 18km/h | 11029m | -8.9m/s | -40.5°C | 0% | 0hPa | 0V | 00:00:00 | 00:00:00 | 00:00:00 | |
| ARGUS2 | 2026-08-31 13:05:25 | 27.62771 | -82.86559 | 88° | 24km/h | 11235m | -9.0m/s | -42.2°C | 0% | 0hPa | 0V | 00:00:00 | 00:00:00 | 00:00:00 | |
| ARGUS2 | 2026-08-31 13:05:03 | 27.62780 | -82.86706 | 91° | 26km/h | 11434m | -8.9m/s | -43.8°C | 0% | 0hPa | 0V | 00:00:00 | 00:00:00 | 00:00:00 | |
| ARGUS2 | 2026-08-31 13:04:42 | 27.62799 | -82.86837 | 95° | 22km/h | 11614m | -9.0m/s | -45.1°C | 0% | 0hPa | 0V | 00:00:00 | 00:00:00 | 00:00:00 | |
| ARGUS2 | 2026-08-31 13:04:22 | 27.62820 | -82.86969 | 114° | 22km/h | 11802m | -8.8m/s | -46.8°C | 0% | 0hPa | 0V | 00:00:00 | 00:00:00 | 00:00:00 | |
| ARGUS2 | 2026-08-31 13:04:01 | 27.62839 | -82.87086 | 96° | 22km/h | 11985m | -9.6m/s | -48.2°C | 0% | 0hPa | 0V | 00:00:00 | 00:00:00 | 00:00:00 | |
| ARGUS2 | 2026-08-31 12:59:17 | 27.63157 | -82.87372 | 0° | 0km/h | 14925m | -11.4m/s | -68.8°C | 0% | 0hPa | 0V | 00:00:00 | 00:00:00 | 00:00:00 | |
| ARGUS2 | 2026-08-31 12:58:56 | 27.63182 | -82.87347 | 191° | 13km/h | 15170m | -11.8m/s | -68.6°C | 0% | 0hPa | 0V | 00:00:00 | 00:00:00 | 00:00:00 | |
| ARGUS2 | 2026-08-31 12:58:35 | 27.63223 | -82.87336 | 194° | 7km/h | 15420m | -11.9m/s | -68.1°C | 0% | 0hPa | 0V | 00:00:00 | 00:00:00 | 00:00:00 | |
| ARGUS2 | 2026-08-31 12:58:14 | 27.63282 | -82.87304 | 220° | 18km/h | 15682m | -11.7m/s | -67.9°C | 0% | 0hPa | 0V | 00:00:00 | 00:00:00 | 00:00:00 | |
| ARGUS2 | 2026-08-31 12:57:52 | 27.63376 | -82.87252 | 189° | 20km/h | 15950m | -12.4m/s | -64.8°C | 0% | 0hPa | 0V | 00:00:00 | 00:00:00 | 00:00:00 | |
| ARGUS2 | 2026-08-31 12:57:31 | 27.63514 | -82.87240 | 185° | 33km/h | 16212m | -12.5m/s | -66.4°C | 0% | 0hPa | 0V | 00:00:00 | 00:00:00 | 00:00:00 | |
| ARGUS2 | 2026-08-31 12:57:10 | 27.63646 | -82.87235 | 200° | 16km/h | 16481m | -13.0m/s | -66.1°C | 0% | 0hPa | 0V | 00:00:00 | 00:00:00 | 00:00:00 | |
| ARGUS2 | 2026-08-31 12:56:47 | 27.63730 | -82.87169 | 225° | 20km/h | 16767m | -12.9m/s | -67.7°C | 0% | 0hPa | 0V | 00:00:00 | 00:00:00 | 00:00:00 | |
| ARGUS2 | 2026-08-31 12:56:05 | 27.63829 | -82.86980 | 227° | 22km/h | 17334m | -13.3m/s | -67.5°C | 0% | 0hPa | 0V | 00:00:00 | 00:00:00 | 00:00:00 | |
| ARGUS2 | 2026-08-31 12:55:42 | 27.63898 | -82.86821 | 257° | 35km/h | 17667m | -14.1m/s | -67.2°C | 0% | 0hPa | 0V | 00:00:00 | 00:00:00 | 00:00:00 | |
| ARGUS2 | 2026-08-31 12:55:17 | 27.63873 | -82.86617 | 294° | 26km/h | 17998m | -14.5m/s | -68.3°C | 0% | 0hPa | 0V | 00:00:00 | 00:00:00 | 00:00:00 | |
| ARGUS2 | 2026-08-31 12:54:11 | 27.64084 | -82.86257 | 251° | 27km/h | 19044m | -16.2m/s | -64.6°C | 0% | 0hPa | 0V | 00:00:00 | 00:00:00 | 00:00:00 | |
| ARGUS2 | 2026-08-31 12:53:48 | 27.64123 | -82.86095 | 223° | 44km/h | 19430m | -16.9m/s | -61.3°C | 0% | 0hPa | 0V | 00:00:00 | 00:00:00 | 00:00:00 | |
| ARGUS2 | 2026-08-31 12:53:26 | 27.64334 | -82.85853 | 238° | 62km/h | 19785m | -16.6m/s | -60.8°C | 0% | 0hPa | 0V | 00:00:00 | 00:00:00 | 00:00:00 | |
| ARGUS2 | 2026-08-31 12:53:03 | 27.64479 | -82.85481 | 263° | 55km/h | 20196m | -17.3m/s | -61.2°C | 0% | 0hPa | 0V | 00:00:00 | 00:00:00 | 00:00:00 | |
| ARGUS2 | 2026-08-31 12:50:51 | 27.64247 | -82.83853 | 292° | 57km/h | 22539m | -15.4m/s | -59.3°C | 0% | 0hPa | 0V | 00:00:00 | 00:00:00 | 00:00:00 | |
| ARGUS2 | 2026-08-31 12:50:31 | 27.64180 | -82.83566 | 286° | 37km/h | 22881m | -17.4m/s | -58.2°C | 0% | 0hPa | 0V | 00:00:00 | 00:00:00 | 00:00:00 | |
| ARGUS2 | 2026-08-31 12:50:10 | 27.64173 | -82.83385 | 242° | 33km/h | 23226m | -16.8m/s | -57.2°C | 0% | 0hPa | 0V | 00:00:00 | 00:00:00 | 00:00:00 | |
| ARGUS2 | 2026-08-31 12:49:50 | 27.64282 | -82.83134 | 257° | 57km/h | 23595m | -18.2m/s | -55.4°C | 0% | 0hPa | 0V | 00:00:00 | 00:00:00 | 00:00:00 | |
| ARGUS2 | 2026-08-31 12:49:29 | 27.64377 | -82.82845 | 241° | 66km/h | 23967m | -19.1m/s | -53.9°C | 0% | 0hPa | 0V | 00:00:00 | 00:00:00 | 00:00:00 | |
| ARGUS2 | 2026-08-31 12:49:09 | 27.64434 | -82.82450 | 284° | 58km/h | 24347m | -24.1m/s | -53.5°C | 0% | 0hPa | 0V | 00:00:00 | 00:00:00 | 00:00:00 | |
| ARGUS2 | 2026-08-31 12:48:48 | 27.64329 | -82.82156 | 282° | 46km/h | 24751m | -19.9m/s | -52.2°C | 0% | 0hPa | 0V | 00:00:00 | 00:00:00 | 00:00:00 | |
| ARGUS2 | 2026-08-31 12:48:27 | 27.64320 | -82.81896 | 280° | 47km/h | 25139m | -17.7m/s | -51.2°C | 0% | 0hPa | 0V | 00:00:00 | 00:00:00 | 00:00:00 | |
| ARGUS2 | 2026-08-31 12:48:06 | 27.64260 | -82.81620 | 286° | 42km/h | 25529m | -20.6m/s | -49.9°C | 0% | 0hPa | 0V | 00:00:00 | 00:00:00 | 00:00:00 | |
| ARGUS2 | 2026-08-31 12:47:45 | 27.64242 | -82.81442 | 232° | 29km/h | 25950m | -20.9m/s | -50.4°C | 0% | 0hPa | 0V | 00:00:00 | 00:00:00 | 00:00:00 | |
| ARGUS2 | 2026-08-31 12:47:24 | 27.64375 | -82.81238 | 236° | 68km/h | 26358m | -20.1m/s | -50.5°C | 0% | 0hPa | 0V | 00:00:00 | 00:00:00 | 00:00:00 | |
| ARGUS2 | 2026-08-31 12:47:03 | 27.64509 | -82.80914 | 248° | 60km/h | 26772m | -21.8m/s | -51.2°C | 0% | 0hPa | 0V | 00:00:00 | 00:00:00 | 00:00:00 | |
| ARGUS2 | 2026-08-31 12:46:42 | 27.64541 | -82.80614 | 288° | 31km/h | 27222m | -18.9m/s | -48.7°C | 0% | 0hPa | 0V | 00:00:00 | 00:00:00 | 00:00:00 | |
| ARGUS2 | 2026-08-31 12:46:20 | 27.64586 | -82.80397 | 258° | 53km/h | 27721m | -23.8m/s | -48.4°C | 0% | 0hPa | 0V | 00:00:00 | 00:00:00 | 00:00:00 | |
| ARGUS2 | 2026-08-31 12:45:59 | 27.64634 | -82.80024 | 267° | 64km/h | 28226m | -21.9m/s | -47.1°C | 0% | 0hPa | 0V | 00:00:00 | 00:00:00 | 00:00:00 | |
| ARGUS2 | 2026-08-31 12:45:37 | 27.64689 | -82.79632 | 240° | 58km/h | 28767m | -25.4m/s | -45.6°C | 0% | 0hPa | 0V | 00:00:00 | 00:00:00 | 00:00:00 | |
| ARGUS2 | 2026-08-31 12:45:18 | 27.64836 | -82.79292 | 248° | 75km/h | 29307m | -26.9m/s | -45.2°C | 0% | 0hPa | 0V | 00:00:00 | 00:00:00 | 00:00:00 | |
| ARGUS2 | 2026-08-31 12:44:52 | 27.64959 | -82.78741 | 260° | 102km/h | 29976m | -26.0m/s | -44.2°C | 0% | 0hPa | 0V | 00:00:00 | 00:00:00 | 00:00:00 | |
| ARGUS2 | 2026-08-31 12:44:28 | 27.64884 | -82.78178 | 282° | 78km/h | 30733m | -29.3m/s | -40.7°C | 0% | 0hPa | 0V | 00:00:00 | 00:00:00 | 00:00:00 | |
| ARGUS2 | 2026-08-31 12:44:05 | 27.64847 | -82.77841 | 261° | 55km/h | 31465m | -34.0m/s | -39.1°C | 0% | 0hPa | 0V | 00:00:00 | 00:00:00 | 00:00:00 | |
| ARGUS2 | 2026-08-31 12:43:43 | 27.64893 | -82.77522 | 262° | 55km/h | 32187m | -32.2m/s | -39.4°C | 0% | 0hPa | 0V | 00:00:00 | 00:00:00 | 00:00:00 | |
| ARGUS2 | 2026-08-31 12:43:22 | 27.64839 | -82.77226 | 317° | 40km/h | 32999m | -44.7m/s | -35.9°C | 0% | 0hPa | 0V | 00:00:00 | 00:00:00 | 00:00:00 | |
| ARGUS2 | 2026-08-31 12:43:01 | 27.64739 | -82.77006 | 277° | 42km/h | 33183m | -1.8m/s | -36.0°C | 0% | 0hPa | 0V | 00:00:00 | 00:00:00 | 00:00:00 | |
| ARGUS2 | 2026-08-31 12:42:41 | 27.64644 | -82.76807 | 287° | 75km/h | 33027m | 12.3m/s | -36.1°C | 0% | 0hPa | 0V | 00:00:00 | 00:00:00 | 00:00:00 | |
| ARGUS2 | 2026-08-31 12:42:19 | 27.64553 | -82.76566 | 29° | 15km/h | 32877m | 12.1m/s | -36.2°C | 0% | 0hPa | 0V | 00:00:00 | 00:00:00 | 00:00:00 | |
| ARGUS2 | 2026-08-31 12:41:59 | 27.64505 | -82.76299 | 300° | 110km/h | 32726m | 6.3m/s | -37.3°C | 0% | 0hPa | 0V | 00:00:00 | 00:00:00 | 00:00:00 | |
| ARGUS2 | 2026-08-31 12:41:38 | 27.64447 | -82.75998 | 273° | 95km/h | 32576m | 8.0m/s | -38.0°C | 0% | 0hPa | 0V | 00:00:00 | 00:00:00 | 00:00:00 | |
| ARGUS2 | 2026-08-31 12:40:56 | 27.64422 | -82.75317 | 241° | 58km/h | 32279m | 9.2m/s | -38.9°C | 0% | 0hPa | 0V | 00:00:00 | 00:00:00 | 00:00:00 | |
| ARGUS2 | 2026-08-31 12:40:35 | 27.64444 | -82.74995 | 321° | 35km/h | 32152m | 7.0m/s | -39.6°C | 0% | 0hPa | 0V | 00:00:00 | 00:00:00 | 00:00:00 | |
| ARGUS2 | 2026-08-31 12:40:14 | 27.64519 | -82.74701 | 299° | 73km/h | 32016m | 4.4m/s | -39.8°C | 0% | 0hPa | 0V | 00:00:00 | 00:00:00 | 00:00:00 | |
| ARGUS2 | 2026-08-31 12:39:54 | 27.64584 | -82.74429 | 283° | 91km/h | 31883m | 10.2m/s | -39.5°C | 0% | 0hPa | 0V | 00:00:00 | 00:00:00 | 00:00:00 | |
| ARGUS2 | 2026-08-31 12:39:34 | 27.64610 | -82.74130 | 273° | 106km/h | 31746m | 5.4m/s | -39.5°C | 0% | 0hPa | 0V | 00:00:00 | 00:00:00 | 00:00:00 | |
| ARGUS2 | 2026-08-31 12:39:12 | 27.64660 | -82.73807 | 232° | 88km/h | 31609m | 6.0m/s | -39.8°C | 0% | 0hPa | 0V | 00:00:00 | 00:00:00 | 00:00:00 | |
| ARGUS2 | 2026-08-31 12:38:51 | 27.64740 | -82.73486 | 14° | 16km/h | 31476m | 9.3m/s | -39.5°C | 0% | 0hPa | 0V | 00:00:00 | 00:00:00 | 00:00:00 | |
| ARGUS2 | 2026-08-31 12:38:31 | 27.64797 | -82.73277 | 303° | 55km/h | 31318m | 5.2m/s | -39.1°C | 0% | 0hPa | 0V | 00:00:00 | 00:00:00 | 00:00:00 | |
| ARGUS2 | 2026-08-31 12:38:09 | 27.64799 | -82.73063 | 301° | 97km/h | 31187m | 1.7m/s | -40.0°C | 0% | 0hPa | 0V | 00:00:00 | 00:00:00 | 00:00:00 | |
| ARGUS2 | 2026-08-31 12:37:46 | 27.64692 | -82.72668 | 306° | 82km/h | 31027m | 5.5m/s | -40.7°C | 0% | 0hPa | 0V | 00:00:00 | 00:00:00 | 00:00:00 | |
| ARGUS2 | 2026-08-31 12:37:24 | 27.64609 | -82.72279 | 250° | 86km/h | 30893m | 6.7m/s | -41.1°C | 0% | 0hPa | 0V | 00:00:00 | 00:00:00 | 00:00:00 | |
| ARGUS2 | 2026-08-31 12:37:00 | 27.64524 | -82.71764 | 280° | 126km/h | 30723m | 13.6m/s | -42.1°C | 0% | 0hPa | 0V | 00:00:00 | 00:00:00 | 00:00:00 | |
| ARGUS2 | 2026-08-31 12:36:40 | 27.64422 | -82.71319 | 245° | 89km/h | 30583m | 9.7m/s | -43.2°C | 0% | 0hPa | 0V | 00:00:00 | 00:00:00 | 00:00:00 | |
| ARGUS2 | 2026-08-31 12:36:20 | 27.64303 | -82.70815 | 256° | 57km/h | 30443m | 11.1m/s | -43.7°C | 0% | 0hPa | 0V | 00:00:00 | 00:00:00 | 00:00:00 | |
| ARGUS2 | 2026-08-31 12:35:59 | 27.64216 | -82.70328 | 308° | 27km/h | 30306m | 6.7m/s | -44.8°C | 0% | 0hPa | 0V | 00:00:00 | 00:00:00 | 00:00:00 | |
| ARGUS2 | 2026-08-31 12:35:39 | 27.64230 | -82.69844 | 236° | 38km/h | 30166m | 6.2m/s | -44.7°C | 0% | 0hPa | 0V | 00:00:00 | 00:00:00 | 00:00:00 | |
| ARGUS2 | 2026-08-31 12:35:18 | 27.64318 | -82.69330 | 277° | 42km/h | 30033m | 6.0m/s | -45.0°C | 0% | 0hPa | 0V | 00:00:00 | 00:00:00 | 00:00:00 | |
| ARGUS2 | 2026-08-31 12:34:58 | 27.64425 | -82.68855 | 288° | 44km/h | 29890m | 7.1m/s | -44.9°C | 0% | 0hPa | 0V | 00:00:00 | 00:00:00 | 00:00:00 | |
| ARGUS2 | 2026-08-31 12:34:36 | 27.64507 | -82.68425 | 288° | 89km/h | 29755m | 4.8m/s | -45.3°C | 0% | 0hPa | 0V | 00:00:00 | 00:00:00 | 00:00:00 | |
| ARGUS2 | 2026-08-31 12:34:16 | 27.64599 | -82.67995 | 270° | 119km/h | 29616m | 2.0m/s | -45.8°C | 0% | 0hPa | 0V | 00:00:00 | 00:00:00 | 00:00:00 | |
| ARGUS2 | 2026-08-31 12:33:54 | 27.64703 | -82.67570 | 245° | 100km/h | 29465m | 10.4m/s | -45.8°C | 0% | 0hPa | 0V | 00:00:00 | 00:00:00 | 00:00:00 | |
| ARGUS2 | 2026-08-31 12:33:34 | 27.64825 | -82.67183 | 200° | 53km/h | 29327m | 5.0m/s | -45.8°C | 0% | 0hPa | 0V | 00:00:00 | 00:00:00 | 00:00:00 | |
| ARGUS2 | 2026-08-31 12:33:14 | 27.64972 | -82.66844 | 269° | 69km/h | 29185m | 5.6m/s | -46.5°C | 0% | 0hPa | 0V | 00:00:00 | 00:00:00 | 00:00:00 | |
| ARGUS2 | 2026-08-31 12:32:53 | 27.65103 | -82.66486 | 258° | 97km/h | 29033m | 10.9m/s | -46.3°C | 0% | 0hPa | 0V | 00:00:00 | 00:00:00 | 00:00:00 | |
| ARGUS2 | 2026-08-31 12:32:31 | 27.65302 | -82.66112 | 251° | 69km/h | 28890m | 10.6m/s | -45.7°C | 0% | 0hPa | 0V | 00:00:00 | 00:00:00 | 00:00:00 | |
| ARGUS2 | 2026-08-31 12:32:11 | 27.65466 | -82.65762 | 227° | 37km/h | 28744m | 6.0m/s | -45.1°C | 0% | 0hPa | 0V | 00:00:00 | 00:00:00 | 00:00:00 | |
| ARGUS2 | 2026-08-31 12:31:50 | 27.65564 | -82.65408 | 254° | 46km/h | 28599m | 8.2m/s | -45.3°C | 0% | 0hPa | 0V | 00:00:00 | 00:00:00 | 00:00:00 | |
| ARGUS2 | 2026-08-31 12:31:30 | 27.65623 | -82.65059 | 258° | 82km/h | 28473m | 3.2m/s | -45.8°C | 0% | 0hPa | 0V | 00:00:00 | 00:00:00 | 00:00:00 | |
| ARGUS2 | 2026-08-31 12:31:09 | 27.65677 | -82.64701 | 259° | 95km/h | 28339m | -2.2m/s | -46.4°C | 0% | 0hPa | 0V | 00:00:00 | 00:00:00 | 00:00:00 | |
| ARGUS2 | 2026-08-31 12:30:49 | 27.65701 | -82.64386 | 281° | 58km/h | 28218m | 9.2m/s | -47.0°C | 0% | 0hPa | 0V | 00:00:00 | 00:00:00 | 00:00:00 | |
| ARGUS2 | 2026-08-31 12:30:28 | 27.65730 | -82.64062 | 270° | 44km/h | 28099m | 0.5m/s | -47.6°C | 0% | 0hPa | 0V | 00:00:00 | 00:00:00 | 00:00:00 | |
| ARGUS2 | 2026-08-31 12:30:08 | 27.65763 | -82.63695 | 274° | 46km/h | 27981m | 8.0m/s | -48.0°C | 0% | 0hPa | 0V | 00:00:00 | 00:00:00 | 00:00:00 | |
| ARGUS2 | 2026-08-31 12:29:48 | 27.65799 | -82.63343 | 266° | 82km/h | 27864m | 3.3m/s | -48.5°C | 0% | 0hPa | 0V | 00:00:00 | 00:00:00 | 00:00:00 | |
| ARGUS2 | 2026-08-31 12:29:27 | 27.65886 | -82.63059 | 266° | 68km/h | 27747m | 1.0m/s | -48.5°C | 0% | 0hPa | 0V | 00:00:00 | 00:00:00 | 00:00:00 | |
| ARGUS2 | 2026-08-31 12:29:06 | 27.65955 | -82.62805 | 274° | 71km/h | 27615m | 7.4m/s | -49.1°C | 0% | 0hPa | 0V | 00:00:00 | 00:00:00 | 00:00:00 | |
| ARGUS2 | 2026-08-31 12:28:46 | 27.65946 | -82.62585 | 305° | 22km/h | 27494m | 5.1m/s | -49.6°C | 0% | 0hPa | 0V | 00:00:00 | 00:00:00 | 00:00:00 | |
| ARGUS2 | 2026-08-31 12:28:26 | 27.65932 | -82.62404 | 210° | 22km/h | 27358m | 4.6m/s | -49.3°C | 0% | 0hPa | 0V | 00:00:00 | 00:00:00 | 00:00:00 | |
| ARGUS2 | 2026-08-31 12:28:05 | 27.65902 | -82.62199 | 318° | 37km/h | 27230m | 8.1m/s | -49.1°C | 0% | 0hPa | 0V | 00:00:00 | 00:00:00 | 00:00:00 | |
| ARGUS2 | 2026-08-31 12:27:45 | 27.65849 | -82.61959 | 283° | 46km/h | 27089m | 4.5m/s | -49.9°C | 0% | 0hPa | 0V | 00:00:00 | 00:00:00 | 00:00:00 | |
| ARGUS2 | 2026-08-31 12:27:23 | 27.65858 | -82.61676 | 291° | 49km/h | 26952m | 2.7m/s | -50.0°C | 0% | 0hPa | 0V | 00:00:00 | 00:00:00 | 00:00:00 | |
| ARGUS2 | 2026-08-31 12:27:03 | 27.65934 | -82.61407 | 267° | 53km/h | 26826m | 1.0m/s | -50.0°C | 0% | 0hPa | 0V | 00:00:00 | 00:00:00 | 00:00:00 | |
| ARGUS2 | 2026-08-31 12:26:42 | 27.66053 | -82.61067 | 259° | 49km/h | 26699m | 5.5m/s | -50.1°C | 0% | 0hPa | 0V | 00:00:00 | 00:00:00 | 00:00:00 | |
| ARGUS2 | 2026-08-31 12:26:22 | 27.66153 | -82.60799 | 256° | 55km/h | 26591m | 4.5m/s | -50.5°C | 0% | 0hPa | 0V | 00:00:00 | 00:00:00 | 00:00:00 | |
| ARGUS2 | 2026-08-31 12:26:02 | 27.66282 | -82.60542 | 206° | 49km/h | 26465m | 0.8m/s | -49.8°C | 0% | 0hPa | 0V | 00:00:00 | 00:00:00 | 00:00:00 | |
| ARGUS2 | 2026-08-31 12:25:41 | 27.66440 | -82.60303 | 207° | 64km/h | 26354m | 1.1m/s | -49.7°C | 0% | 0hPa | 0V | 00:00:00 | 00:00:00 | 00:00:00 | |
| ARGUS2 | 2026-08-31 12:25:21 | 27.66638 | -82.60087 | 222° | 57km/h | 26235m | 6.6m/s | -49.6°C | 0% | 0hPa | 0V | 00:00:00 | 00:00:00 | 00:00:00 | |
| ARGUS2 | 2026-08-31 12:25:00 | 27.66795 | -82.59929 | 235° | 64km/h | 26119m | 3.6m/s | -49.3°C | 0% | 0hPa | 0V | 00:00:00 | 00:00:00 | 00:00:00 | |
| ARGUS2 | 2026-08-31 12:24:40 | 27.66903 | -82.59808 | 218° | 26km/h | 26000m | 4.7m/s | -49.5°C | 0% | 0hPa | 0V | 00:00:00 | 00:00:00 | 00:00:00 | |
| ARGUS2 | 2026-08-31 12:24:19 | 27.66950 | -82.59768 | 259° | 9km/h | 25878m | 7.9m/s | -49.5°C | 0% | 0hPa | 0V | 00:00:00 | 00:00:00 | 00:00:00 | |
| ARGUS2 | 2026-08-31 12:23:59 | 27.66947 | -82.59693 | 346° | 22km/h | 25737m | 5.5m/s | -49.1°C | 0% | 0hPa | 0V | 00:00:00 | 00:00:00 | 00:00:00 | |
| ARGUS2 | 2026-08-31 12:23:38 | 27.66880 | -82.59596 | 289° | 24km/h | 25616m | 9.5m/s | -49.1°C | 0% | 0hPa | 0V | 00:00:00 | 00:00:00 | 00:00:00 | |
| ARGUS2 | 2026-08-31 12:23:18 | 27.66849 | -82.59460 | 279° | 27km/h | 25477m | 4.2m/s | -49.0°C | 0% | 0hPa | 0V | 00:00:00 | 00:00:00 | 00:00:00 | |
| ARGUS2 | 2026-08-31 12:22:57 | 27.66796 | -82.59255 | 255° | 62km/h | 25349m | 3.0m/s | -49.5°C | 0% | 0hPa | 0V | 00:00:00 | 00:00:00 | 00:00:00 | |
| ARGUS2 | 2026-08-31 12:22:37 | 27.66710 | -82.58988 | 293° | 46km/h | 25218m | 8.8m/s | -50.4°C | 0% | 0hPa | 0V | 00:00:00 | 00:00:00 | 00:00:00 | |
| ARGUS2 | 2026-08-31 12:22:15 | 27.66607 | -82.58727 | 298° | 49km/h | 25086m | 6.6m/s | -50.7°C | 0% | 0hPa | 0V | 00:00:00 | 00:00:00 | 00:00:00 | |
| ARGUS2 | 2026-08-31 12:21:55 | 27.66573 | -82.58484 | 292° | 29km/h | 24971m | 7.8m/s | -51.0°C | 0% | 0hPa | 0V | 00:00:00 | 00:00:00 | 00:00:00 | |
| ARGUS2 | 2026-08-31 12:21:35 | 27.66512 | -82.58252 | 321° | 42km/h | 24851m | 1.8m/s | -51.5°C | 0% | 0hPa | 0V | 00:00:00 | 00:00:00 | 00:00:00 | |
| ARGUS2 | 2026-08-31 12:21:14 | 27.66444 | -82.58035 | 281° | 27km/h | 24737m | 5.7m/s | -52.0°C | 0% | 0hPa | 0V | 00:00:00 | 00:00:00 | 00:00:00 | |
| ARGUS2 | 2026-08-31 12:20:54 | 27.66329 | -82.57777 | 303° | 62km/h | 24624m | 6.3m/s | -52.4°C | 0% | 0hPa | 0V | 00:00:00 | 00:00:00 | 00:00:00 | |
| ARGUS2 | 2026-08-31 12:20:33 | 27.66192 | -82.57484 | 296° | 47km/h | 24504m | 5.0m/s | -53.4°C | 0% | 0hPa | 0V | 00:00:00 | 00:00:00 | 00:00:00 | |
| ARGUS2 | 2026-08-31 12:20:13 | 27.66047 | -82.57110 | 268° | 62km/h | 24384m | 5.8m/s | -53.2°C | 0% | 0hPa | 0V | 00:00:00 | 00:00:00 | 00:00:00 | |
| ARGUS2 | 2026-08-31 12:19:52 | 27.65954 | -82.56740 | 277° | 60km/h | 24261m | 6.9m/s | -52.9°C | 0% | 0hPa | 0V | 00:00:00 | 00:00:00 | 00:00:00 | |
| ARGUS2 | 2026-08-31 12:19:32 | 27.65950 | -82.56322 | 267° | 91km/h | 24134m | 0.4m/s | -52.9°C | 0% | 0hPa | 0V | 00:00:00 | 00:00:00 | 00:00:00 | |
| ARGUS2 | 2026-08-31 12:19:11 | 27.66053 | -82.55954 | 272° | 80km/h | 24010m | 6.5m/s | -53.7°C | 0% | 0hPa | 0V | 00:00:00 | 00:00:00 | 00:00:00 | |
| ARGUS2 | 2026-08-31 12:18:30 | 27.66315 | -82.55378 | 242° | 51km/h | 23746m | 5.7m/s | -54.5°C | 0% | 0hPa | 0V | 00:00:00 | 00:00:00 | 00:00:00 | |
| ARGUS2 | 2026-08-31 12:18:10 | 27.66380 | -82.55083 | 258° | 64km/h | 23620m | 6.2m/s | -55.1°C | 0% | 0hPa | 0V | 00:00:00 | 00:00:00 | 00:00:00 | |
| ARGUS2 | 2026-08-31 12:17:49 | 27.66471 | -82.54789 | 229° | 44km/h | 23484m | 7.4m/s | -55.3°C | 0% | 0hPa | 0V | 00:00:00 | 00:00:00 | 00:00:00 | |
| ARGUS2 | 2026-08-31 12:17:29 | 27.66611 | -82.54530 | 236° | 49km/h | 23359m | 7.2m/s | -56.1°C | 0% | 0hPa | 0V | 00:00:00 | 00:00:00 | 00:00:00 | |
| ARGUS2 | 2026-08-31 12:17:07 | 27.66709 | -82.54321 | 251° | 24km/h | 23239m | 3.7m/s | -56.3°C | 0% | 0hPa | 0V | 00:00:00 | 00:00:00 | 00:00:00 | |
| ARGUS2 | 2026-08-31 12:16:47 | 27.66768 | -82.54123 | 264° | 46km/h | 23120m | 5.1m/s | -56.9°C | 0% | 0hPa | 0V | 00:00:00 | 00:00:00 | 00:00:00 | |
| ARGUS2 | 2026-08-31 12:16:27 | 27.66780 | -82.53892 | 249° | 31km/h | 23009m | 6.3m/s | -56.9°C | 0% | 0hPa | 0V | 00:00:00 | 00:00:00 | 00:00:00 | |
| ARGUS2 | 2026-08-31 12:16:06 | 27.66736 | -82.53682 | 283° | 35km/h | 22905m | 6.2m/s | -57.2°C | 0% | 0hPa | 0V | 00:00:00 | 00:00:00 | 00:00:00 | |
| ARGUS2 | 2026-08-31 12:15:45 | 27.66659 | -82.53461 | 296° | 49km/h | 22795m | 4.1m/s | -57.9°C | 0% | 0hPa | 0V | 00:00:00 | 00:00:00 | 00:00:00 | |
| ARGUS2 | 2026-08-31 12:15:25 | 27.66594 | -82.53205 | 261° | 46km/h | 22689m | 1.5m/s | -58.6°C | 0% | 0hPa | 0V | 00:00:00 | 00:00:00 | 00:00:00 | |
| ARGUS2 | 2026-08-31 12:15:05 | 27.66547 | -82.52857 | 282° | 66km/h | 22582m | 3.3m/s | -58.8°C | 0% | 0hPa | 0V | 00:00:00 | 00:00:00 | 00:00:00 | |
| ARGUS2 | 2026-08-31 12:14:44 | 27.66522 | -82.52516 | 289° | 69km/h | 22480m | 5.1m/s | -58.7°C | 0% | 0hPa | 0V | 00:00:00 | 00:00:00 | 00:00:00 | |
| ARGUS2 | 2026-08-31 12:14:24 | 27.66497 | -82.52123 | 260° | 75km/h | 22368m | 2.3m/s | -58.4°C | 0% | 0hPa | 0V | 00:00:00 | 00:00:00 | 00:00:00 | |
| ARGUS2 | 2026-08-31 12:14:03 | 27.66481 | -82.51736 | 265° | 78km/h | 22262m | 6.1m/s | -58.4°C | 0% | 0hPa | 0V | 00:00:00 | 00:00:00 | 00:00:00 | |
| ARGUS2 | 2026-08-31 12:13:43 | 27.66443 | -82.51370 | 266° | 49km/h | 22146m | 6.1m/s | -59.0°C | 0% | 0hPa | 0V | 00:00:00 | 00:00:00 | 00:00:00 | |
| ARGUS2 | 2026-08-31 12:13:22 | 27.66403 | -82.51058 | 286° | 60km/h | 22029m | 5.7m/s | -59.9°C | 0% | 0hPa | 0V | 00:00:00 | 00:00:00 | 00:00:00 | |
| ARGUS2 | 2026-08-31 12:12:41 | 27.66425 | -82.50477 | 276° | 35km/h | 21805m | 7.3m/s | -60.4°C | 0% | 0hPa | 0V | 00:00:00 | 00:00:00 | 00:00:00 | |
| ARGUS2 | 2026-08-31 12:12:21 | 27.66397 | -82.50234 | 288° | 53km/h | 21679m | 3.0m/s | -60.1°C | 0% | 0hPa | 0V | 00:00:00 | 00:00:00 | 00:00:00 | |
| ARGUS2 | 2026-08-31 12:11:59 | 27.66306 | -82.50015 | 296° | 40km/h | 21560m | 6.2m/s | -60.1°C | 0% | 0hPa | 0V | 00:00:00 | 00:00:00 | 00:00:00 | |
| ARGUS2 | 2026-08-31 12:11:39 | 27.66230 | -82.49753 | 287° | 53km/h | 21446m | 5.9m/s | -59.4°C | 0% | 0hPa | 0V | 00:00:00 | 00:00:00 | 00:00:00 | |
| ARGUS2 | 2026-08-31 12:11:18 | 27.66187 | -82.49493 | 290° | 47km/h | 21332m | 6.9m/s | -58.5°C | 0% | 0hPa | 0V | 00:00:00 | 00:00:00 | 00:00:00 | |
| ARGUS2 | 2026-08-31 12:10:58 | 27.66182 | -82.49226 | 272° | 57km/h | 21227m | 3.6m/s | -58.3°C | 0% | 0hPa | 0V | 00:00:00 | 00:00:00 | 00:00:00 | |
| ARGUS2 | 2026-08-31 12:10:39 | 27.66225 | -82.48990 | 261° | 31km/h | 21116m | 5.8m/s | -58.7°C | 0% | 0hPa | 0V | 00:00:00 | 00:00:00 | 00:00:00 | |
| ARGUS2 | 2026-08-31 12:10:17 | 27.66202 | -82.48775 | 282° | 44km/h | 20996m | 5.4m/s | -59.1°C | 0% | 0hPa | 0V | 00:00:00 | 00:00:00 | 00:00:00 | |
| ARGUS2 | 2026-08-31 12:09:56 | 27.66146 | -82.48586 | 264° | 37km/h | 20886m | 4.6m/s | -59.1°C | 0% | 0hPa | 0V | 00:00:00 | 00:00:00 | 00:00:00 | |
| ARGUS2 | 2026-08-31 12:09:36 | 27.66132 | -82.48334 | 275° | 58km/h | 20771m | 6.3m/s | -58.9°C | 0% | 0hPa | 0V | 00:00:00 | 00:00:00 | 00:00:00 | |
| ARGUS2 | 2026-08-31 12:09:16 | 27.66134 | -82.48010 | 270° | 53km/h | 20647m | 7.2m/s | -58.9°C | 0% | 0hPa | 0V | 00:00:00 | 00:00:00 | 00:00:00 | |
| ARGUS2 | 2026-08-31 12:08:55 | 27.66177 | -82.47722 | 250° | 47km/h | 20530m | 6.1m/s | -60.1°C | 0% | 0hPa | 0V | 00:00:00 | 00:00:00 | 00:00:00 | |
| ARGUS2 | 2026-08-31 12:08:35 | 27.66201 | -82.47476 | 237° | 35km/h | 20408m | 7.2m/s | -60.6°C | 0% | 0hPa | 0V | 00:00:00 | 00:00:00 | 00:00:00 | |
| ARGUS2 | 2026-08-31 12:08:14 | 27.66265 | -82.47249 | 267° | 47km/h | 20288m | 6.1m/s | -61.4°C | 0% | 0hPa | 0V | 00:00:00 | 00:00:00 | 00:00:00 | |
| ARGUS2 | 2026-08-31 12:07:53 | 27.66328 | -82.46958 | 262° | 53km/h | 20168m | 7.3m/s | -60.8°C | 0% | 0hPa | 0V | 00:00:00 | 00:00:00 | 00:00:00 | |
| ARGUS2 | 2026-08-31 12:07:33 | 27.66412 | -82.46675 | 237° | 58km/h | 20059m | 6.0m/s | -60.5°C | 0% | 0hPa | 0V | 00:00:00 | 00:00:00 | 00:00:00 | |
| ARGUS2 | 2026-08-31 12:07:13 | 27.66561 | -82.46387 | 237° | 62km/h | 19946m | 4.9m/s | -60.5°C | 0% | 0hPa | 0V | 00:00:00 | 00:00:00 | 00:00:00 | |
| ARGUS2 | 2026-08-31 12:06:52 | 27.66752 | -82.46091 | 218° | 55km/h | 19839m | 5.5m/s | -60.8°C | 0% | 0hPa | 0V | 00:00:00 | 00:00:00 | 00:00:00 | |
| ARGUS2 | 2026-08-31 12:06:32 | 27.66958 | -82.45818 | 221° | 60km/h | 19732m | 6.2m/s | -61.2°C | 0% | 0hPa | 0V | 00:00:00 | 00:00:00 | 00:00:00 | |
| ARGUS2 | 2026-08-31 12:06:10 | 27.67186 | -82.45609 | 214° | 58km/h | 19627m | 4.4m/s | -61.8°C | 0% | 0hPa | 0V | 00:00:00 | 00:00:00 | 00:00:00 | |
| ARGUS2 | 2026-08-31 12:05:50 | 27.67389 | -82.45467 | 216° | 35km/h | 19529m | 3.8m/s | -61.7°C | 0% | 0hPa | 0V | 00:00:00 | 00:00:00 | 00:00:00 | |
| ARGUS2 | 2026-08-31 12:05:30 | 27.67543 | -82.45355 | 223° | 15km/h | 19425m | 3.7m/s | -62.8°C | 0% | 0hPa | 0V | 00:00:00 | 00:00:00 | 00:00:00 | |
| ARGUS2 | 2026-08-31 12:05:09 | 27.67600 | -82.45263 | 278° | 33km/h | 19331m | 5.0m/s | -63.3°C | 0% | 0hPa | 0V | 00:00:00 | 00:00:00 | 00:00:00 | |
| ARGUS2 | 2026-08-31 12:04:49 | 27.67578 | -82.45136 | 286° | 16km/h | 19233m | 4.8m/s | -64.6°C | 0% | 0hPa | 0V | 00:00:00 | 00:00:00 | 00:00:00 | |
| ARGUS2 | 2026-08-31 12:04:28 | 27.67603 | -82.44981 | 229° | 31km/h | 19138m | 3.5m/s | -65.0°C | 0% | 0hPa | 0V | 00:00:00 | 00:00:00 | 00:00:00 | |
| ARGUS2 | 2026-08-31 12:04:08 | 27.67684 | -82.44805 | 226° | 38km/h | 19029m | 5.4m/s | -65.4°C | 0% | 0hPa | 0V | 00:00:00 | 00:00:00 | 00:00:00 | |
| ARGUS2 | 2026-08-31 12:03:47 | 27.67797 | -82.44633 | 237° | 27km/h | 18931m | 3.8m/s | -65.0°C | 0% | 0hPa | 0V | 00:00:00 | 00:00:00 | 00:00:00 | |
| ARGUS2 | 2026-08-31 12:03:27 | 27.67951 | -82.44493 | 211° | 40km/h | 18823m | 6.7m/s | -65.1°C | 0% | 0hPa | 0V | 00:00:00 | 00:00:00 | 00:00:00 | |
| ARGUS2 | 2026-08-31 12:03:06 | 27.68101 | -82.44424 | 209° | 31km/h | 18717m | 6.3m/s | -65.8°C | 0% | 0hPa | 0V | 00:00:00 | 00:00:00 | 00:00:00 | |
| ARGUS2 | 2026-08-31 12:02:46 | 27.68235 | -82.44356 | 228° | 42km/h | 18609m | 5.7m/s | -65.6°C | 0% | 0hPa | 0V | 00:00:00 | 00:00:00 | 00:00:00 | |
| ARGUS2 | 2026-08-31 12:02:25 | 27.68312 | -82.44271 | 228° | 18km/h | 18504m | 4.6m/s | -65.7°C | 0% | 0hPa | 0V | 00:00:00 | 00:00:00 | 00:00:00 | |
| ARGUS2 | 2026-08-31 12:02:05 | 27.68327 | -82.44150 | 295° | 29km/h | 18397m | 7.2m/s | -68.2°C | 0% | 0hPa | 0V | 00:00:00 | 00:00:00 | 00:00:00 | |
| ARGUS2 | 2026-08-31 12:01:44 | 27.68294 | -82.44002 | 307° | 11km/h | 18292m | 6.4m/s | -69.4°C | 0% | 0hPa | 0V | 00:00:00 | 00:00:00 | 00:00:00 | |
| ARGUS2 | 2026-08-31 12:01:23 | 27.68268 | -82.43916 | 297° | 16km/h | 18194m | 5.8m/s | -69.3°C | 0% | 0hPa | 0V | 00:00:00 | 00:00:00 | 00:00:00 | |
| ARGUS2 | 2026-08-31 12:01:02 | 27.68213 | -82.43802 | 289° | 16km/h | 18095m | 5.1m/s | -68.7°C | 0% | 0hPa | 0V | 00:00:00 | 00:00:00 | 00:00:00 | |
| ARGUS2 | 2026-08-31 12:00:42 | 27.68158 | -82.43673 | 302° | 33km/h | 17999m | 3.9m/s | -68.2°C | 0% | 0hPa | 0V | 00:00:00 | 00:00:00 | 00:00:00 | |
| ARGUS2 | 2026-08-31 12:00:21 | 27.68110 | -82.43481 | 282° | 40km/h | 17893m | 3.8m/s | -67.7°C | 0% | 0hPa | 0V | 00:00:00 | 00:00:00 | 00:00:00 | |
| ARGUS2 | 2026-08-31 12:00:01 | 27.68114 | -82.43285 | 261° | 44km/h | 17794m | 6.1m/s | -67.9°C | 0% | 0hPa | 0V | 00:00:00 | 00:00:00 | 00:00:00 | |
| ARGUS2 | 2026-08-31 11:59:41 | 27.68181 | -82.43104 | 236° | 40km/h | 17682m | 6.4m/s | -67.4°C | 0% | 0hPa | 0V | 00:00:00 | 00:00:00 | 00:00:00 | |
| ARGUS2 | 2026-08-31 11:59:20 | 27.68272 | -82.42944 | 249° | 44km/h | 17576m | 5.7m/s | -66.7°C | 0% | 0hPa | 0V | 00:00:00 | 00:00:00 | 00:00:00 | |
| ARGUS2 | 2026-08-31 11:59:00 | 27.68376 | -82.42806 | 233° | 24km/h | 17466m | 6.7m/s | -66.0°C | 0% | 0hPa | 0V | 00:00:00 | 00:00:00 | 00:00:00 | |
| ARGUS2 | 2026-08-31 11:58:39 | 27.68470 | -82.42710 | 217° | 20km/h | 17359m | 6.5m/s | -66.8°C | 0% | 0hPa | 0V | 00:00:00 | 00:00:00 | 00:00:00 | |
| ARGUS2 | 2026-08-31 11:58:19 | 27.68604 | -82.42668 | 198° | 27km/h | 17248m | 5.9m/s | -67.4°C | 0% | 0hPa | 0V | 00:00:00 | 00:00:00 | 00:00:00 | |
| ARGUS2 | 2026-08-31 11:57:58 | 27.68683 | -82.42607 | 234° | 16km/h | 17136m | 5.6m/s | -67.5°C | 0% | 0hPa | 0V | 00:00:00 | 00:00:00 | 00:00:00 | |
| ARGUS2 | 2026-08-31 11:57:38 | 27.68738 | -82.42519 | 257° | 20km/h | 17027m | 3.9m/s | -66.9°C | 0% | 0hPa | 0V | 00:00:00 | 00:00:00 | 00:00:00 | |
| ARGUS2 | 2026-08-31 11:57:18 | 27.68812 | -82.42456 | 197° | 15km/h | 16924m | 5.8m/s | -67.9°C | 0% | 0hPa | 0V | 00:00:00 | 00:00:00 | 00:00:00 | |
| ARGUS2 | 2026-08-31 11:56:57 | 27.68867 | -82.42396 | 250° | 7km/h | 16818m | 5.1m/s | -67.5°C | 0% | 0hPa | 0V | 00:00:00 | 00:00:00 | 00:00:00 | |
| ARGUS2 | 2026-08-31 11:56:36 | 27.68930 | -82.42317 | 212° | 18km/h | 16717m | 4.4m/s | -66.7°C | 0% | 0hPa | 0V | 00:00:00 | 00:00:00 | 00:00:00 | |
| ARGUS2 | 2026-08-31 11:56:15 | 27.68977 | -82.42269 | 232° | 22km/h | 16622m | 6.1m/s | -65.9°C | 0% | 0hPa | 0V | 00:00:00 | 00:00:00 | 00:00:00 | |
| ARGUS2 | 2026-08-31 11:55:55 | 27.69015 | -82.42232 | 243° | 5km/h | 16520m | 6.2m/s | -65.3°C | 0% | 0hPa | 0V | 00:00:00 | 00:00:00 | 00:00:00 | |
| ARGUS2 | 2026-08-31 11:55:34 | 27.69041 | -82.42210 | 225° | 4km/h | 16425m | 5.8m/s | -65.0°C | 0% | 0hPa | 0V | 00:00:00 | 00:00:00 | 00:00:00 | |
| ARGUS2 | 2026-08-31 11:55:14 | 27.69077 | -82.42201 | 16° | 4km/h | 16328m | 3.3m/s | -66.1°C | 0% | 0hPa | 0V | 00:00:00 | 00:00:00 | 00:00:00 | |
| ARGUS2 | 2026-08-31 11:54:53 | 27.69105 | -82.42249 | 142° | 5km/h | 16230m | 5.4m/s | -66.4°C | 0% | 0hPa | 0V | 00:00:00 | 00:00:00 | 00:00:00 | |
| ARGUS2 | 2026-08-31 11:54:33 | 27.69147 | -82.42259 | 201° | 11km/h | 16125m | 5.8m/s | -67.1°C | 0% | 0hPa | 0V | 00:00:00 | 00:00:00 | 00:00:00 | |
| ARGUS2 | 2026-08-31 11:54:13 | 27.69185 | -82.42213 | 252° | 5km/h | 16025m | 6.1m/s | -67.8°C | 0% | 0hPa | 0V | 00:00:00 | 00:00:00 | 00:00:00 | |
| ARGUS2 | 2026-08-31 11:53:52 | 27.69240 | -82.42154 | 224° | 27km/h | 15912m | 6.5m/s | -67.6°C | 0% | 0hPa | 0V | 00:00:00 | 00:00:00 | 00:00:00 | |
| ARGUS2 | 2026-08-31 11:53:32 | 27.69351 | -82.42121 | 207° | 22km/h | 15810m | 6.2m/s | -67.9°C | 0% | 0hPa | 0V | 00:00:00 | 00:00:00 | 00:00:00 | |
| ARGUS2 | 2026-08-31 11:53:11 | 27.69449 | -82.42111 | 191° | 29km/h | 15702m | 4.0m/s | -68.8°C | 0% | 0hPa | 0V | 00:00:00 | 00:00:00 | 00:00:00 | |
| ARGUS2 | 2026-08-31 11:52:51 | 27.69523 | -82.42089 | 188° | 18km/h | 15601m | 6.6m/s | -68.1°C | 0% | 0hPa | 0V | 00:00:00 | 00:00:00 | 00:00:00 | |
| ARGUS2 | 2026-08-31 11:52:30 | 27.69590 | -82.42052 | 249° | 11km/h | 15495m | 6.1m/s | -67.5°C | 0% | 0hPa | 0V | 00:00:00 | 00:00:00 | 00:00:00 | |
| ARGUS2 | 2026-08-31 11:52:10 | 27.69641 | -82.42011 | 215° | 18km/h | 15393m | 5.6m/s | -67.8°C | 0% | 0hPa | 0V | 00:00:00 | 00:00:00 | 00:00:00 | |
| ARGUS2 | 2026-08-31 11:51:49 | 27.69698 | -82.42001 | 167° | 15km/h | 15291m | 5.4m/s | -67.2°C | 0% | 0hPa | 0V | 00:00:00 | 00:00:00 | 00:00:00 | |
| ARGUS2 | 2026-08-31 11:51:27 | 27.69749 | -82.42023 | 156° | 7km/h | 15191m | 5.2m/s | -68.4°C | 0% | 0hPa | 0V | 00:00:00 | 00:00:00 | 00:00:00 | |
| ARGUS2 | 2026-08-31 11:51:07 | 27.69770 | -82.42016 | 292° | 16km/h | 15090m | 4.6m/s | -68.6°C | 0% | 0hPa | 0V | 00:00:00 | 00:00:00 | 00:00:00 | |
| ARGUS2 | 2026-08-31 11:50:46 | 27.69771 | -82.41951 | 238° | 18km/h | 14988m | 5.4m/s | -68.9°C | 0% | 0hPa | 0V | 00:00:00 | 00:00:00 | 00:00:00 | |
| ARGUS2 | 2026-08-31 11:50:26 | 27.69781 | -82.41923 | 270° | 15km/h | 14891m | 3.2m/s | -68.9°C | 0% | 0hPa | 0V | 00:00:00 | 00:00:00 | 00:00:00 | |
| ARGUS2 | 2026-08-31 11:50:06 | 27.69738 | -82.41904 | 308° | 5km/h | 14784m | 5.3m/s | -68.7°C | 0% | 0hPa | 0V | 00:00:00 | 00:00:00 | 00:00:00 | |
| ARGUS2 | 2026-08-31 11:49:45 | 27.69688 | -82.41874 | 294° | 16km/h | 14684m | 6.8m/s | -67.9°C | 0% | 0hPa | 0V | 00:00:00 | 00:00:00 | 00:00:00 | |
| ARGUS2 | 2026-08-31 11:49:25 | 27.69653 | -82.41845 | 284° | 13km/h | 14579m | 4.4m/s | -67.3°C | 0% | 0hPa | 0V | 00:00:00 | 00:00:00 | 00:00:00 | |
| ARGUS2 | 2026-08-31 11:49:05 | 27.69638 | -82.41801 | 293° | 15km/h | 14480m | 5.1m/s | -66.7°C | 0% | 0hPa | 0V | 00:00:00 | 00:00:00 | 00:00:00 | |
| ARGUS2 | 2026-08-31 11:48:44 | 27.69653 | -82.41749 | 282° | 5km/h | 14380m | 4.2m/s | -66.6°C | 0% | 0hPa | 0V | 00:00:00 | 00:00:00 | 00:00:00 | |
| ARGUS2 | 2026-08-31 11:48:23 | 27.69690 | -82.41709 | 213° | 18km/h | 14282m | 4.8m/s | -66.1°C | 0% | 0hPa | 0V | 00:00:00 | 00:00:00 | 00:00:00 | |
| ARGUS2 | 2026-08-31 11:48:03 | 27.69744 | -82.41690 | 194° | 15km/h | 14181m | 5.3m/s | -65.5°C | 0% | 0hPa | 0V | 00:00:00 | 00:00:00 | 00:00:00 | |
| ARGUS2 | 2026-08-31 11:47:42 | 27.69788 | -82.41674 | 134° | 4km/h | 14087m | 5.3m/s | -64.8°C | 0% | 0hPa | 0V | 00:00:00 | 00:00:00 | 00:00:00 | |
| ARGUS2 | 2026-08-31 11:47:22 | 27.69829 | -82.41665 | 155° | 9km/h | 13988m | 6.3m/s | -64.3°C | 0% | 0hPa | 0V | 00:00:00 | 00:00:00 | 00:00:00 | |
| ARGUS2 | 2026-08-31 11:47:01 | 27.69867 | -82.41666 | 139° | 15km/h | 13896m | 5.0m/s | -63.6°C | 0% | 0hPa | 0V | 00:00:00 | 00:00:00 | 00:00:00 | |
| ARGUS2 | 2026-08-31 11:46:41 | 27.69920 | -82.41689 | 185° | 20km/h | 13800m | 3.9m/s | -62.9°C | 0% | 0hPa | 0V | 00:00:00 | 00:00:00 | 00:00:00 | |
| ARGUS2 | 2026-08-31 11:46:20 | 27.69968 | -82.41701 | 161° | 11km/h | 13700m | 4.7m/s | -62.2°C | 0% | 0hPa | 0V | 00:00:00 | 00:00:00 | 00:00:00 | |
| ARGUS2 | 2026-08-31 11:46:00 | 27.70001 | -82.41726 | 138° | 11km/h | 13611m | 3.0m/s | -61.6°C | 0% | 0hPa | 0V | 00:00:00 | 00:00:00 | 00:00:00 | |
| ARGUS2 | 2026-08-31 11:45:39 | 27.70048 | -82.41766 | 109° | 9km/h | 13515m | 5.1m/s | -60.8°C | 0% | 0hPa | 0V | 00:00:00 | 00:00:00 | 00:00:00 | |
| ARGUS2 | 2026-08-31 11:45:19 | 27.70073 | -82.41831 | 128° | 11km/h | 13415m | 5.8m/s | -60.0°C | 0% | 0hPa | 0V | 00:00:00 | 00:00:00 | 00:00:00 | |
| ARGUS2 | 2026-08-31 11:44:58 | 27.70093 | -82.41917 | 101° | 7km/h | 13314m | 3.4m/s | -59.2°C | 0% | 0hPa | 0V | 00:00:00 | 00:00:00 | 00:00:00 | |
| ARGUS2 | 2026-08-31 11:44:37 | 27.70110 | -82.41991 | 83° | 24km/h | 13219m | 4.4m/s | -58.5°C | 0% | 0hPa | 0V | 00:00:00 | 00:00:00 | 00:00:00 | |
| ARGUS2 | 2026-08-31 11:44:17 | 27.70117 | -82.42062 | 79° | 7km/h | 13123m | 4.8m/s | -57.6°C | 0% | 0hPa | 0V | 00:00:00 | 00:00:00 | 00:00:00 | |
| ARGUS2 | 2026-08-31 11:43:57 | 27.70121 | -82.42117 | 64° | 11km/h | 13034m | 3.0m/s | -56.9°C | 0% | 0hPa | 0V | 00:00:00 | 00:00:00 | 00:00:00 | |
| ARGUS2 | 2026-08-31 11:43:35 | 27.70125 | -82.42175 | 99° | 15km/h | 12939m | 4.1m/s | -56.0°C | 0% | 0hPa | 0V | 00:00:00 | 00:00:00 | 00:00:00 | |
| ARGUS2 | 2026-08-31 11:43:15 | 27.70142 | -82.42223 | 117° | 7km/h | 12849m | 5.3m/s | -55.4°C | 0% | 0hPa | 0V | 00:00:00 | 00:00:00 | 00:00:00 | |
| ARGUS2 | 2026-08-31 11:42:55 | 27.70156 | -82.42277 | 103° | 13km/h | 12753m | 5.0m/s | -54.6°C | 0% | 0hPa | 0V | 00:00:00 | 00:00:00 | 00:00:00 | |
| ARGUS2 | 2026-08-31 11:42:34 | 27.70168 | -82.42327 | 157° | 11km/h | 12663m | 4.5m/s | -53.8°C | 0% | 0hPa | 0V | 00:00:00 | 00:00:00 | 00:00:00 | |
| ARGUS2 | 2026-08-31 11:42:14 | 27.70182 | -82.42386 | 93° | 22km/h | 12571m | 3.8m/s | -53.0°C | 0% | 0hPa | 0V | 00:00:00 | 00:00:00 | 00:00:00 | |
| ARGUS2 | 2026-08-31 11:41:54 | 27.70189 | -82.42449 | 132° | 7km/h | 12476m | 5.2m/s | -52.2°C | 0% | 0hPa | 0V | 00:00:00 | 00:00:00 | 00:00:00 | |
| ARGUS2 | 2026-08-31 11:41:33 | 27.70209 | -82.42534 | 84° | 22km/h | 12385m | 4.0m/s | -51.5°C | 0% | 0hPa | 0V | 00:00:00 | 00:00:00 | 00:00:00 | |
| ARGUS2 | 2026-08-31 11:41:12 | 27.70221 | -82.42625 | 92° | 9km/h | 12293m | 2.6m/s | -50.7°C | 0% | 0hPa | 0V | 00:00:00 | 00:00:00 | 00:00:00 | |
| ARGUS2 | 2026-08-31 11:40:51 | 27.70229 | -82.42694 | 65° | 13km/h | 12201m | 5.1m/s | -49.9°C | 0% | 0hPa | 0V | 00:00:00 | 00:00:00 | 00:00:00 | |
| ARGUS2 | 2026-08-31 11:40:31 | 27.70223 | -82.42761 | 152° | 4km/h | 12098m | 4.9m/s | -49.0°C | 0% | 0hPa | 0V | 00:00:00 | 00:00:00 | 00:00:00 | |
| ARGUS2 | 2026-08-31 11:40:11 | 27.70207 | -82.42825 | 107° | 18km/h | 12000m | 4.1m/s | -48.2°C | 0% | 0hPa | 0V | 00:00:00 | 00:00:00 | 00:00:00 | |
| ARGUS2 | 2026-08-31 11:39:50 | 27.70194 | -82.42917 | 91° | 11km/h | 11905m | 4.0m/s | -47.3°C | 0% | 0hPa | 0V | 00:00:00 | 00:00:00 | 00:00:00 | |
| ARGUS2 | 2026-08-31 11:39:29 | 27.70190 | -82.42991 | 82° | 26km/h | 11807m | 4.7m/s | -46.6°C | 0% | 0hPa | 0V | 00:00:00 | 00:00:00 | 00:00:00 | |
| ARGUS2 | 2026-08-31 11:39:09 | 27.70207 | -82.43122 | 115° | 35km/h | 11705m | 5.1m/s | -46.0°C | 0% | 0hPa | 0V | 00:00:00 | 00:00:00 | 00:00:00 | |
| ARGUS2 | 2026-08-31 11:38:48 | 27.70249 | -82.43292 | 118° | 29km/h | 11611m | 4.6m/s | -45.2°C | 0% | 0hPa | 0V | 00:00:00 | 00:00:00 | 00:00:00 | |
| ARGUS2 | 2026-08-31 11:38:27 | 27.70281 | -82.43445 | 105° | 20km/h | 11511m | 3.8m/s | -44.4°C | 0% | 0hPa | 0V | 00:00:00 | 00:00:00 | 00:00:00 | |
| ARGUS2 | 2026-08-31 11:38:08 | 27.70303 | -82.43610 | 80° | 27km/h | 11425m | 3.9m/s | -43.6°C | 0% | 0hPa | 0V | 00:00:00 | 00:00:00 | 00:00:00 | |
| ARGUS2 | 2026-08-31 11:37:47 | 27.70308 | -82.43765 | 97° | 26km/h | 11329m | 6.0m/s | -42.9°C | 0% | 0hPa | 0V | 00:00:00 | 00:00:00 | 00:00:00 | |
| ARGUS2 | 2026-08-31 11:37:26 | 27.70321 | -82.43909 | 107° | 24km/h | 11239m | 4.8m/s | -42.1°C | 0% | 0hPa | 0V | 00:00:00 | 00:00:00 | 00:00:00 | |
| ARGUS2 | 2026-08-31 11:37:06 | 27.70328 | -82.44058 | 99° | 22km/h | 11142m | 4.4m/s | -41.3°C | 0% | 0hPa | 0V | 00:00:00 | 00:00:00 | 00:00:00 | |
| ARGUS2 | 2026-08-31 11:36:45 | 27.70320 | -82.44198 | 78° | 27km/h | 11049m | 4.4m/s | -40.5°C | 0% | 0hPa | 0V | 00:00:00 | 00:00:00 | 00:00:00 | |
| ARGUS2 | 2026-08-31 11:36:25 | 27.70309 | -82.44332 | 85° | 20km/h | 10951m | 5.3m/s | -39.7°C | 0% | 0hPa | 0V | 00:00:00 | 00:00:00 | 00:00:00 | |
| ARGUS2 | 2026-08-31 11:36:03 | 27.70303 | -82.44458 | 91° | 22km/h | 10854m | 3.5m/s | -38.9°C | 0% | 0hPa | 0V | 00:00:00 | 00:00:00 | 00:00:00 | |
| ARGUS2 | 2026-08-31 11:35:43 | 27.70275 | -82.44579 | 62° | 22km/h | 10763m | 4.1m/s | -38.1°C | 0% | 0hPa | 0V | 00:00:00 | 00:00:00 | 00:00:00 | |
| ARGUS2 | 2026-08-31 11:35:23 | 27.70228 | -82.44693 | 55° | 22km/h | 10664m | 5.2m/s | -37.3°C | 0% | 0hPa | 0V | 00:00:00 | 00:00:00 | 00:00:00 | |
| ARGUS2 | 2026-08-31 11:34:42 | 27.70149 | -82.44878 | 59° | 22km/h | 10471m | 4.3m/s | -35.7°C | 0% | 0hPa | 0V | 00:00:00 | 00:00:00 | 00:00:00 | |
| ARGUS2 | 2026-08-31 11:34:21 | 27.70103 | -82.44951 | 85° | 18km/h | 10373m | 5.3m/s | -34.8°C | 0% | 0hPa | 0V | 00:00:00 | 00:00:00 | 00:00:00 | |
| ARGUS2 | 2026-08-31 11:34:01 | 27.70058 | -82.45020 | 53° | 20km/h | 10278m | 3.8m/s | -34.2°C | 0% | 0hPa | 0V | 00:00:00 | 00:00:00 | 00:00:00 | |
| ARGUS2 | 2026-08-31 11:33:40 | 27.70026 | -82.45073 | 41° | 18km/h | 10185m | 6.4m/s | -33.5°C | 0% | 0hPa | 0V | 00:00:00 | 00:00:00 | 00:00:00 | |
| ARGUS2 | 2026-08-31 11:33:20 | 27.69995 | -82.45120 | 70° | 11km/h | 10086m | 6.1m/s | -32.7°C | 0% | 0hPa | 0V | 00:00:00 | 00:00:00 | 00:00:00 | |
| ARGUS2 | 2026-08-31 11:32:59 | 27.69962 | -82.45168 | 76° | 16km/h | 9999m | 4.6m/s | -32.2°C | 0% | 0hPa | 0V | 00:00:00 | 00:00:00 | 00:00:00 | |
| ARGUS2 | 2026-08-31 11:32:39 | 27.69931 | -82.45205 | 73° | 15km/h | 9902m | 4.9m/s | -31.8°C | 0% | 0hPa | 0V | 00:00:00 | 00:00:00 | 00:00:00 | |
| ARGUS2 | 2026-08-31 11:32:18 | 27.69893 | -82.45223 | 358° | 11km/h | 9810m | 5.3m/s | -31.2°C | 0% | 0hPa | 0V | 00:00:00 | 00:00:00 | 00:00:00 | |
| ARGUS2 | 2026-08-31 11:31:58 | 27.69840 | -82.45233 | 337° | 7km/h | 9716m | 5.0m/s | -30.4°C | 0% | 0hPa | 0V | 00:00:00 | 00:00:00 | 00:00:00 | |
| ARGUS2 | 2026-08-31 11:31:37 | 27.69812 | -82.45245 | 355° | 15km/h | 9618m | 4.3m/s | -29.5°C | 0% | 0hPa | 0V | 00:00:00 | 00:00:00 | 00:00:00 | |
| ARGUS2 | 2026-08-31 11:31:17 | 27.69768 | -82.45272 | 56° | 11km/h | 9521m | 4.1m/s | -28.8°C | 0% | 0hPa | 0V | 00:00:00 | 00:00:00 | 00:00:00 | |
| ARGUS2 | 2026-08-31 11:30:55 | 27.69731 | -82.45318 | 110° | 13km/h | 9433m | 5.3m/s | -28.1°C | 0% | 0hPa | 0V | 00:00:00 | 00:00:00 | 00:00:00 | |
| ARGUS2 | 2026-08-31 11:30:35 | 27.69715 | -82.45364 | 85° | 9km/h | 9336m | 4.6m/s | -27.2°C | 0% | 0hPa | 0V | 00:00:00 | 00:00:00 | 00:00:00 | |
| ARGUS2 | 2026-08-31 11:30:15 | 27.69694 | -82.45406 | 14° | 11km/h | 9239m | 4.4m/s | -26.3°C | 0% | 0hPa | 0V | 00:00:00 | 00:00:00 | 00:00:00 | |
| ARGUS2 | 2026-08-31 11:29:54 | 27.69667 | -82.45431 | 95° | 9km/h | 9150m | 5.5m/s | -25.7°C | 0% | 0hPa | 0V | 00:00:00 | 00:00:00 | 00:00:00 | |
| ARGUS2 | 2026-08-31 11:29:33 | 27.69653 | -82.45444 | 94° | 5km/h | 9055m | 4.8m/s | -25.0°C | 0% | 0hPa | 0V | 00:00:00 | 00:00:00 | 00:00:00 | |
| ARGUS2 | 2026-08-31 11:29:13 | 27.69649 | -82.45451 | 99° | 2km/h | 8965m | 4.0m/s | -24.5°C | 0% | 0hPa | 0V | 00:00:00 | 00:00:00 | 00:00:00 | |
| ARGUS2 | 2026-08-31 11:28:53 | 27.69654 | -82.45434 | 238° | 9km/h | 8872m | 5.5m/s | -23.8°C | 0% | 0hPa | 0V | 00:00:00 | 00:00:00 | 00:00:00 | |
| ARGUS2 | 2026-08-31 11:28:32 | 27.69664 | -82.45411 | 217° | 7km/h | 8781m | 4.0m/s | -23.0°C | 0% | 0hPa | 0V | 00:00:00 | 00:00:00 | 00:00:00 | |
| ARGUS2 | 2026-08-31 11:28:11 | 27.69686 | -82.45383 | 223° | 7km/h | 8685m | 3.8m/s | -22.7°C | 0% | 0hPa | 0V | 00:00:00 | 00:00:00 | 00:00:00 | |
| ARGUS2 | 2026-08-31 11:27:51 | 27.69700 | -82.45339 | 250° | 26km/h | 8593m | 3.9m/s | -22.3°C | 0% | 0hPa | 0V | 00:00:00 | 00:00:00 | 00:00:00 | |
| ARGUS2 | 2026-08-31 11:27:29 | 27.69723 | -82.45287 | 223° | 20km/h | 8479m | 4.3m/s | -21.8°C | 0% | 0hPa | 0V | 00:00:00 | 00:00:00 | 00:00:00 | |
| ARGUS2 | 2026-08-31 11:27:07 | 27.69751 | -82.45230 | 228° | 11km/h | 8377m | 6.0m/s | 0°C | 0% | 0hPa | 0V | 00:00:00 | 00:00:00 | 00:00:00 | |
| ARGUS2 | 2026-08-31 11:26:46 | 27.69796 | -82.45176 | 244° | 18km/h | 8288m | 3.4m/s | -20.7°C | 0% | 0hPa | 0V | 00:00:00 | 00:00:00 | 00:00:00 | |
| ARGUS2 | 2026-08-31 11:26:22 | 27.69818 | -82.45126 | 186° | 24km/h | 8172m | 5.5m/s | -19.7°C | 0% | 0hPa | 0V | 00:00:00 | 00:00:00 | 00:00:00 | |
| ARGUS2 | 2026-08-31 11:26:00 | 27.69886 | -82.45099 | 210° | 31km/h | 8071m | 2.6m/s | -19.1°C | 0% | 0hPa | 0V | 00:00:00 | 00:00:00 | 00:00:00 | |
| ARGUS2 | 2026-08-31 11:25:34 | 27.69991 | -82.45069 | 215° | 20km/h | 7935m | 3.1m/s | -18.3°C | 0% | 0hPa | 0V | 00:00:00 | 00:00:00 | 00:00:00 | |
| ARGUS2 | 2026-08-31 11:25:11 | 27.70087 | -82.45032 | 188° | 20km/h | 7836m | 3.0m/s | -17.6°C | 0% | 0hPa | 0V | 00:00:00 | 00:00:00 | 00:00:00 | |
| ARGUS2 | 2026-08-31 11:24:51 | 27.70165 | -82.45004 | 185° | 9km/h | 7747m | 4.6m/s | -17.1°C | 0% | 0hPa | 0V | 00:00:00 | 00:00:00 | 00:00:00 | |
| ARGUS2 | 2026-08-31 11:24:30 | 27.70240 | -82.44972 | 164° | 27km/h | 7656m | 4.7m/s | -16.7°C | 0% | 0hPa | 0V | 00:00:00 | 00:00:00 | 00:00:00 | |
| ARGUS2 | 2026-08-31 11:24:09 | 27.70316 | -82.44936 | 209° | 18km/h | 7566m | 5.1m/s | -16.2°C | 0% | 0hPa | 0V | 00:00:00 | 00:00:00 | 00:00:00 | |
| ARGUS2 | 2026-08-31 11:23:47 | 27.70377 | -82.44893 | 215° | 20km/h | 7475m | 5.3m/s | 0°C | 0% | 0hPa | 0V | 00:00:00 | 00:00:00 | 00:00:00 | |
| ARGUS2 | 2026-08-31 11:21:08 | 27.70842 | -82.44696 | 217° | 26km/h | 6677m | 7.0m/s | -10.7°C | 0% | 0hPa | 0V | 00:00:00 | 00:00:00 | 00:00:00 | |
| ARGUS2 | 2026-08-31 11:20:46 | 27.70862 | -82.44629 | 272° | 11km/h | 6556m | 4.5m/s | -9.8°C | 0% | 0hPa | 0V | 00:00:00 | 00:00:00 | 00:00:00 | |
| ARGUS2 | 2026-08-31 11:20:25 | 27.70892 | -82.44547 | 216° | 9km/h | 6443m | 4.3m/s | -9.1°C | 0% | 0hPa | 0V | 00:00:00 | 00:00:00 | 00:00:00 | |
| ARGUS2 | 2026-08-31 11:20:05 | 27.70929 | -82.44463 | 232° | 18km/h | 6326m | 5.4m/s | -8.2°C | 0% | 0hPa | 0V | 00:00:00 | 00:00:00 | 00:00:00 | |
| ARGUS2 | 2026-08-31 11:19:43 | 27.70960 | -82.44349 | 287° | 15km/h | 6222m | 7.1m/s | 0°C | 0% | 0hPa | 0V | 00:00:00 | 00:00:00 | 00:00:00 | |
| ARGUS2 | 2026-08-31 11:18:03 | 27.71088 | -82.43910 | 207° | 9km/h | 5669m | 4.6m/s | -3.9°C | 0% | 0hPa | 0V | 00:00:00 | 00:00:00 | 00:00:00 | |
| ARGUS2 | 2026-08-31 11:17:43 | 27.71128 | -82.43818 | 260° | 38km/h | 5551m | 4.7m/s | -3.1°C | 0% | 0hPa | 0V | 00:00:00 | 00:00:00 | 00:00:00 | |
| ARGUS2 | 2026-08-31 11:17:22 | 27.71145 | -82.43696 | 283° | 29km/h | 5437m | 6.7m/s | -2.4°C | 0% | 0hPa | 0V | 00:00:00 | 00:00:00 | 00:00:00 | |
| ARGUS2 | 2026-08-31 11:16:41 | 27.71158 | -82.43483 | 292° | 26km/h | 5204m | 4.6m/s | -1.1°C | 0% | 0hPa | 0V | 00:00:00 | 00:00:00 | 00:00:00 | |
| ARGUS2 | 2026-08-31 11:16:21 | 27.71180 | -82.43353 | 290° | 33km/h | 5096m | 2.1m/s | -0.7°C | 0% | 0hPa | 0V | 00:00:00 | 00:00:00 | 00:00:00 | |
| ARGUS2 | 2026-08-31 11:16:00 | 27.71193 | -82.43263 | 350° | 15km/h | 4985m | 4.0m/s | -0.2°C | 0% | 0hPa | 0V | 00:00:00 | 00:00:00 | 00:00:00 | |
| ARGUS2 | 2026-08-31 11:15:40 | 27.71210 | -82.43179 | 192° | 11km/h | 4868m | 5.8m/s | 0.1°C | 0% | 0hPa | 0V | 00:00:00 | 00:00:00 | 00:00:00 | |
| ARGUS2 | 2026-08-31 11:15:19 | 27.71193 | -82.43107 | 279° | 38km/h | 4749m | 6.0m/s | 0.8°C | 0% | 0hPa | 0V | 00:00:00 | 00:00:00 | 00:00:00 | |
| ARGUS2 | 2026-08-31 11:14:57 | 27.71201 | -82.42957 | 225° | 24km/h | 4630m | 6.0m/s | 1.5°C | 0% | 0hPa | 0V | 00:00:00 | 00:00:00 | 00:00:00 | |
| ARGUS2 | 2026-08-31 11:14:34 | 27.71177 | -82.42860 | 221° | 26km/h | 4507m | 3.5m/s | 2.0°C | 0% | 0hPa | 0V | 00:00:00 | 00:00:00 | 00:00:00 | |
| ARGUS2 | 2026-08-31 11:14:14 | 27.71209 | -82.42732 | 256° | 35km/h | 4407m | 3.8m/s | 2.4°C | 0% | 0hPa | 0V | 00:00:00 | 00:00:00 | 00:00:00 | |
| ARGUS2 | 2026-08-31 11:13:33 | 27.71283 | -82.42499 | 310° | 4km/h | 4202m | 3.7m/s | 3.5°C | 0% | 0hPa | 0V | 00:00:00 | 00:00:00 | 00:00:00 | |
| ARGUS2 | 2026-08-31 11:13:12 | 27.71294 | -82.42372 | 251° | 24km/h | 4083m | 5.7m/s | 4.1°C | 0% | 0hPa | 0V | 00:00:00 | 00:00:00 | 00:00:00 | |
| ARGUS2 | 2026-08-31 11:12:50 | 27.71334 | -82.42286 | 218° | 15km/h | 3979m | 6.4m/s | 4.5°C | 0% | 0hPa | 0V | 00:00:00 | 00:00:00 | 00:00:00 | |
| ARGUS2 | 2026-08-31 11:12:28 | 27.71331 | -82.42220 | 298° | 26km/h | 3860m | 4.3m/s | 5.1°C | 0% | 0hPa | 0V | 00:00:00 | 00:00:00 | 00:00:00 | |
| ARGUS2 | 2026-08-31 11:12:07 | 27.71339 | -82.42123 | 351° | 2km/h | 3747m | 4.8m/s | 5.8°C | 0% | 0hPa | 0V | 00:00:00 | 00:00:00 | 00:00:00 | |
| ARGUS2 | 2026-08-31 11:11:45 | 27.71341 | -82.41995 | 271° | 20km/h | 3637m | 5.6m/s | 6.2°C | 0% | 0hPa | 0V | 00:00:00 | 00:00:00 | 00:00:00 | |
| ARGUS2 | 2026-08-31 11:11:24 | 27.71362 | -82.41897 | 325° | 27km/h | 3519m | 5.4m/s | 7.3°C | 0% | 0hPa | 0V | 00:00:00 | 00:00:00 | 00:00:00 | |
| ARGUS2 | 2026-08-31 11:11:04 | 27.71353 | -82.41785 | 222° | 15km/h | 3402m | 5.8m/s | 8.2°C | 0% | 0hPa | 0V | 00:00:00 | 00:00:00 | 00:00:00 | |
| ARGUS2 | 2026-08-31 11:08:00 | 27.71210 | -82.41486 | 297° | 18km/h | 2385m | 3.9m/s | 13.1°C | 0% | 0hPa | 0V | 00:00:00 | 00:00:00 | 00:00:00 | |
| ARGUS2 | 2026-08-31 11:07:35 | 27.71194 | -82.41447 | 211° | 18km/h | 2251m | 6.6m/s | 13.6°C | 0% | 0hPa | 0V | 00:00:00 | 00:00:00 | 00:00:00 | |
| ARGUS2 | 2026-08-31 11:07:14 | 27.71181 | -82.41414 | 325° | 18km/h | 2129m | 4.7m/s | 13.9°C | 0% | 0hPa | 0V | 00:00:00 | 00:00:00 | 00:00:00 | |
| ARGUS2 | 2026-08-31 11:06:52 | 27.71184 | -82.41364 | 211° | 13km/h | 2013m | 5.3m/s | 14.4°C | 0% | 0hPa | 0V | 00:00:00 | 00:00:00 | 00:00:00 | |
| ARGUS2 | 2026-08-31 11:06:29 | 27.71190 | -82.41295 | 320° | 26km/h | 1895m | 5.2m/s | 14.9°C | 0% | 0hPa | 0V | 00:00:00 | 00:00:00 | 00:00:00 | |
| ARGUS2 | 2026-08-31 11:06:06 | 27.71175 | -82.41229 | 277° | 27km/h | 1762m | 4.2m/s | 15.6°C | 0% | 0hPa | 0V | 00:00:00 | 00:00:00 | 00:00:00 | |
| ARGUS2 | 2026-08-31 11:05:40 | 27.71148 | -82.41169 | 199° | 18km/h | 1618m | 5.2m/s | 15.7°C | 0% | 0hPa | 0V | 00:00:00 | 00:00:00 | 00:00:00 | |
| ARGUS2 | 2026-08-31 11:05:12 | 27.71121 | -82.41106 | 299° | 22km/h | 1466m | 5.4m/s | 17.0°C | 0% | 0hPa | 0V | 00:00:00 | 00:00:00 | 00:00:00 | |
| ARGUS2 | 2026-08-31 11:04:52 | 27.71085 | -82.41040 | 273° | 9km/h | 1351m | 5.6m/s | 17.9°C | 0% | 0hPa | 0V | 00:00:00 | 00:00:00 | 00:00:00 |